Decoded Metar for LZPP (PIESTANY in SLOVAKIA) (IATA:PZY) | Meteo·Mobile Aviation Weather
aviador You're here:

LZPP Decoded Metar

PIESTANY in SLOVAKIA
Report Time2018-11-18 01:30:00
UTC Time2018-11-18 02:05:47
Flight Rules vfr VFR
Wind010° at 07 kt
W.Decomp.*RWY 01: 7.0 kt HW 0.4 kt LCW
W.Rank010° ranks 2
Current wind is above 010° avg. (6.8)
Visibility9999 m
Phenomena:N/A
Clouds:N/A
Expected CloudBase > 1,200 ft AGL from Temp-Dew spread
CeilingNone
Temp-1°C (ISA -15)
Dew Point-4°C (80% RH)
AAT-6.0°C
QNH1030 hPa
Density Alt-1,814 ft
Elevation528 ft
Report Wrong Elevation
Raw Report
LZPP 180130Z AUTO 01007KT 9999 NCD M01/M04 Q1030=

Extra information for LZPP:More info

Metar Taf Metar & Taf Last 4 Metars F.Rules Stats Wind Profile Meteogram Temp Stats Airport Information Weather charts Add Link Nearby VenuesMetar ALERT Operation Metar Decoded Social comments